sensor_id;sensor_type;location;lat;lon;timestamp;pressure;altitude;pressure_sealevel;temperature;humidity
22647;BME280;11490;42.726;23.268;2022-12-18T00:01:43;95961.97;;;6.62;100.00
22647;BME280;11490;42.726;23.268;2022-12-18T00:04:18;95975.38;;;6.53;100.00
22647;BME280;11490;42.726;23.268;2022-12-18T00:06:43;95994.16;;;6.58;100.00
22647;BME280;11490;42.726;23.268;2022-12-18T00:09:10;95992.41;;;6.66;100.00
22647;BME280;11490;42.726;23.268;2022-12-18T00:11:35;95978.09;;;6.32;100.00
22647;BME280;11490;42.726;23.268;2022-12-18T00:14:00;95985.41;;;6.30;100.00
22647;BME280;11490;42.726;23.268;2022-12-18T00:16:27;95986.16;;;6.24;100.00
22647;BME280;11490;42.726;23.268;2022-12-18T00:18:55;95994.50;;;6.21;100.00
22647;BME280;11490;42.726;23.268;2022-12-18T00:21:21;96002.88;;;6.25;100.00
22647;BME280;11490;42.726;23.268;2022-12-18T00:23:48;96006.84;;;6.14;100.00
22647;BME280;11490;42.726;23.268;2022-12-18T00:26:18;95999.69;;;6.08;100.00
22647;BME280;11490;42.726;23.268;2022-12-18T00:28:44;96017.84;;;6.11;100.00
22647;BME280;11490;42.726;23.268;2022-12-18T00:31:15;96014.69;;;6.22;100.00
22647;BME280;11490;42.726;23.268;2022-12-18T00:33:41;96035.63;;;6.17;100.00
22647;BME280;11490;42.726;23.268;2022-12-18T00:36:12;96024.25;;;6.23;100.00
22647;BME280;11490;42.726;23.268;2022-12-18T00:38:38;96035.50;;;6.25;100.00
22647;BME280;11490;42.726;23.268;2022-12-18T00:41:04;96032.47;;;6.07;100.00
22647;BME280;11490;42.726;23.268;2022-12-18T00:43:30;96012.41;;;5.98;100.00
22647;BME280;11490;42.726;23.268;2022-12-18T00:45:56;96023.38;;;6.16;100.00
22647;BME280;11490;42.726;23.268;2022-12-18T00:48:22;96029.25;;;6.11;100.00
22647;BME280;11490;42.726;23.268;2022-12-18T00:50:48;96032.88;;;6.04;100.00
22647;BME280;11490;42.726;23.268;2022-12-18T00:53:14;96030.06;;;6.12;100.00
22647;BME280;11490;42.726;23.268;2022-12-18T00:55:40;96036.00;;;6.14;100.00
22647;BME280;11490;42.726;23.268;2022-12-18T00:58:06;96036.75;;;6.08;100.00
22647;BME280;11490;42.726;23.268;2022-12-18T01:00:31;96042.19;;;6.00;100.00
22647;BME280;11490;42.726;23.268;2022-12-18T01:02:57;96034.44;;;5.84;100.00
22647;BME280;11490;42.726;23.268;2022-12-18T01:05:22;96007.13;;;5.62;100.00
22647;BME280;11490;42.726;23.268;2022-12-18T01:07:47;96042.78;;;5.80;100.00
22647;BME280;11490;42.726;23.268;2022-12-18T01:10:13;96045.53;;;5.72;100.00
22647;BME280;11490;42.726;23.268;2022-12-18T01:12:39;96060.25;;;5.96;100.00
22647;BME280;11490;42.726;23.268;2022-12-18T01:15:06;96055.44;;;5.85;100.00
22647;BME280;11490;42.726;23.268;2022-12-18T01:17:32;96038.66;;;5.78;100.00
22647;BME280;11490;42.726;23.268;2022-12-18T01:19:57;96055.38;;;5.78;100.00
22647;BME280;11490;42.726;23.268;2022-12-18T01:22:23;96067.25;;;5.68;100.00
22647;BME280;11490;42.726;23.268;2022-12-18T01:24:48;96054.63;;;5.49;100.00
22647;BME280;11490;42.726;23.268;2022-12-18T01:27:14;96053.25;;;5.38;100.00
22647;BME280;11490;42.726;23.268;2022-12-18T01:29:39;96070.03;;;5.45;100.00
22647;BME280;11490;42.726;23.268;2022-12-18T01:32:04;96070.66;;;5.62;100.00
22647;BME280;11490;42.726;23.268;2022-12-18T01:34:30;96066.91;;;5.56;100.00
22647;BME280;11490;42.726;23.268;2022-12-18T01:36:55;96068.19;;;5.60;100.00
22647;BME280;11490;42.726;23.268;2022-12-18T01:39:21;96071.00;;;5.59;100.00
22647;BME280;11490;42.726;23.268;2022-12-18T01:41:46;96084.59;;;5.70;100.00
22647;BME280;11490;42.726;23.268;2022-12-18T01:44:59;96087.88;;;5.72;100.00
22647;BME280;11490;42.726;23.268;2022-12-18T01:50:03;96086.59;;;5.68;100.00
22647;BME280;11490;42.726;23.268;2022-12-18T01:52:31;96088.91;;;5.42;100.00
22647;BME280;11490;42.726;23.268;2022-12-18T01:54:58;96101.22;;;5.35;100.00
22647;BME280;11490;42.726;23.268;2022-12-18T01:57:25;96099.78;;;5.18;100.00
22647;BME280;11490;42.726;23.268;2022-12-18T01:59:53;96098.78;;;5.33;100.00
22647;BME280;11490;42.726;23.268;2022-12-18T02:02:20;96080.88;;;5.50;100.00
22647;BME280;11490;42.726;23.268;2022-12-18T02:04:46;96094.63;;;5.60;100.00
22647;BME280;11490;42.726;23.268;2022-12-18T02:10:31;96087.88;;;5.58;100.00
22647;BME280;11490;42.726;23.268;2022-12-18T02:12:39;96099.78;;;5.47;100.00
22647;BME280;11490;42.726;23.268;2022-12-18T02:15:26;96107.88;;;5.46;100.00
22647;BME280;11490;42.726;23.268;2022-12-18T02:17:59;96099.69;;;5.40;100.00
22647;BME280;11490;42.726;23.268;2022-12-18T02:20:35;96110.25;;;5.55;100.00
22647;BME280;11490;42.726;23.268;2022-12-18T02:23:52;96115.47;;;5.34;100.00
22647;BME280;11490;42.726;23.268;2022-12-18T02:28:31;96110.44;;;5.54;100.00
22647;BME280;11490;42.726;23.268;2022-12-18T02:30:59;96113.56;;;5.57;100.00
22647;BME280;11490;42.726;23.268;2022-12-18T02:33:27;96123.94;;;5.59;100.00
22647;BME280;11490;42.726;23.268;2022-12-18T02:35:54;96121.50;;;5.57;100.00
22647;BME280;11490;42.726;23.268;2022-12-18T02:38:20;96125.69;;;5.37;100.00
22647;BME280;11490;42.726;23.268;2022-12-18T02:40:46;96126.22;;;5.47;100.00
22647;BME280;11490;42.726;23.268;2022-12-18T02:43:15;96116.91;;;5.22;100.00
22647;BME280;11490;42.726;23.268;2022-12-18T02:45:53;96132.69;;;5.45;100.00
22647;BME280;11490;42.726;23.268;2022-12-18T02:48:24;96123.13;;;5.29;100.00
22647;BME280;11490;42.726;23.268;2022-12-18T02:51:13;96128.16;;;5.38;100.00
22647;BME280;11490;42.726;23.268;2022-12-18T02:53:50;96128.97;;;5.39;100.00
22647;BME280;11490;42.726;23.268;2022-12-18T02:56:22;96128.72;;;5.34;100.00
22647;BME280;11490;42.726;23.268;2022-12-18T02:59:17;96135.00;;;5.33;100.00
22647;BME280;11490;42.726;23.268;2022-12-18T03:04:46;96129.78;;;5.10;100.00
22647;BME280;11490;42.726;23.268;2022-12-18T03:07:21;96123.84;;;5.08;100.00
22647;BME280;11490;42.726;23.268;2022-12-18T03:09:50;96123.38;;;5.04;100.00
22647;BME280;11490;42.726;23.268;2022-12-18T03:12:40;96133.78;;;5.21;100.00
22647;BME280;11490;42.726;23.268;2022-12-18T03:15:18;96146.09;;;5.28;100.00
22647;BME280;11490;42.726;23.268;2022-12-18T03:17:50;96140.63;;;5.30;100.00
22647;BME280;11490;42.726;23.268;2022-12-18T03:20:19;96143.09;;;5.31;100.00
22647;BME280;11490;42.726;23.268;2022-12-18T03:22:50;96140.53;;;5.23;100.00
22647;BME280;11490;42.726;23.268;2022-12-18T03:25:17;96147.47;;;5.39;100.00
22647;BME280;11490;42.726;23.268;2022-12-18T03:27:48;96147.56;;;5.31;100.00
22647;BME280;11490;42.726;23.268;2022-12-18T03:30:15;96157.34;;;5.30;100.00
22647;BME280;11490;42.726;23.268;2022-12-18T03:32:54;96150.13;;;5.10;100.00
22647;BME280;11490;42.726;23.268;2022-12-18T03:35:29;96163.94;;;5.12;100.00
22647;BME280;11490;42.726;23.268;2022-12-18T03:37:56;96166.91;;;5.17;100.00
22647;BME280;11490;42.726;23.268;2022-12-18T03:40:35;96168.16;;;5.21;100.00
22647;BME280;11490;42.726;23.268;2022-12-18T03:43:12;96169.63;;;5.09;100.00
22647;BME280;11490;42.726;23.268;2022-12-18T03:45:46;96182.09;;;5.00;100.00
22647;BME280;11490;42.726;23.268;2022-12-18T03:48:20;96183.97;;;4.91;100.00
22647;BME280;11490;42.726;23.268;2022-12-18T03:55:51;96168.47;;;4.88;100.00
22647;BME280;11490;42.726;23.268;2022-12-18T03:58:20;96186.56;;;4.99;100.00
22647;BME280;11490;42.726;23.268;2022-12-18T04:00:47;96189.34;;;4.83;100.00
22647;BME280;11490;42.726;23.268;2022-12-18T04:03:16;96195.28;;;4.85;100.00
22647;BME280;11490;42.726;23.268;2022-12-18T04:05:43;96181.63;;;4.74;100.00
22647;BME280;11490;42.726;23.268;2022-12-18T04:08:09;96198.69;;;4.71;100.00
22647;BME280;11490;42.726;23.268;2022-12-18T04:10:35;96184.13;;;4.75;100.00
22647;BME280;11490;42.726;23.268;2022-12-18T04:13:00;96198.25;;;4.82;100.00
22647;BME280;11490;42.726;23.268;2022-12-18T04:15:26;96198.91;;;4.84;100.00
22647;BME280;11490;42.726;23.268;2022-12-18T04:17:51;96210.47;;;4.83;100.00
22647;BME280;11490;42.726;23.268;2022-12-18T04:20:17;96216.03;;;4.88;100.00
22647;BME280;11490;42.726;23.268;2022-12-18T04:22:43;96222.22;;;4.81;100.00
22647;BME280;11490;42.726;23.268;2022-12-18T04:25:08;96221.22;;;4.59;100.00
22647;BME280;11490;42.726;23.268;2022-12-18T04:27:34;96212.72;;;4.49;100.00
22647;BME280;11490;42.726;23.268;2022-12-18T04:29:59;96231.84;;;4.51;100.00
22647;BME280;11490;42.726;23.268;2022-12-18T04:32:25;96230.28;;;4.34;100.00
22647;BME280;11490;42.726;23.268;2022-12-18T04:34:50;96238.59;;;4.53;100.00
22647;BME280;11490;42.726;23.268;2022-12-18T04:37:16;96234.72;;;4.41;100.00
22647;BME280;11490;42.726;23.268;2022-12-18T04:39:41;96242.28;;;4.44;100.00
22647;BME280;11490;42.726;23.268;2022-12-18T04:42:06;96242.34;;;4.59;100.00
22647;BME280;11490;42.726;23.268;2022-12-18T04:44:32;96256.09;;;4.54;100.00
22647;BME280;11490;42.726;23.268;2022-12-18T04:46:57;96244.31;;;4.34;100.00
22647;BME280;11490;42.726;23.268;2022-12-18T04:49:22;96261.88;;;4.50;100.00
22647;BME280;11490;42.726;23.268;2022-12-18T04:51:48;96251.41;;;4.34;100.00
22647;BME280;11490;42.726;23.268;2022-12-18T04:54:13;96255.78;;;4.18;100.00
22647;BME280;11490;42.726;23.268;2022-12-18T04:56:39;96268.22;;;4.10;100.00
22647;BME280;11490;42.726;23.268;2022-12-18T04:59:04;96262.03;;;4.25;100.00
22647;BME280;11490;42.726;23.268;2022-12-18T05:01:30;96270.97;;;4.24;100.00
22647;BME280;11490;42.726;23.268;2022-12-18T05:03:55;96275.28;;;4.17;100.00
22647;BME280;11490;42.726;23.268;2022-12-18T05:06:20;96259.47;;;4.09;100.00
22647;BME280;11490;42.726;23.268;2022-12-18T05:08:46;96286.38;;;4.44;100.00
22647;BME280;11490;42.726;23.268;2022-12-18T05:11:13;96291.34;;;4.39;100.00
22647;BME280;11490;42.726;23.268;2022-12-18T05:13:41;96295.69;;;4.32;100.00
22647;BME280;11490;42.726;23.268;2022-12-18T05:16:07;96307.50;;;4.44;100.00
22647;BME280;11490;42.726;23.268;2022-12-18T05:18:33;96289.88;;;4.36;100.00
22647;BME280;11490;42.726;23.268;2022-12-18T05:20:58;96298.34;;;4.23;100.00
22647;BME280;11490;42.726;23.268;2022-12-18T05:23:24;96298.91;;;4.42;100.00
22647;BME280;11490;42.726;23.268;2022-12-18T05:25:54;96309.47;;;4.42;100.00
22647;BME280;11490;42.726;23.268;2022-12-18T05:28:21;96317.56;;;4.48;100.00
22647;BME280;11490;42.726;23.268;2022-12-18T05:30:50;96330.59;;;4.42;100.00
22647;BME280;11490;42.726;23.268;2022-12-18T05:33:17;96280.25;;;4.12;100.00
22647;BME280;11490;42.726;23.268;2022-12-18T05:35:43;96329.44;;;4.44;100.00
22647;BME280;11490;42.726;23.268;2022-12-18T05:38:09;96344.53;;;4.28;100.00
22647;BME280;11490;42.726;23.268;2022-12-18T05:40:34;96332.03;;;4.13;100.00
22647;BME280;11490;42.726;23.268;2022-12-18T05:42:59;96328.41;;;4.14;100.00
22647;BME280;11490;42.726;23.268;2022-12-18T05:45:25;96340.28;;;4.18;100.00
22647;BME280;11490;42.726;23.268;2022-12-18T05:47:50;96337.19;;;4.07;100.00
22647;BME280;11490;42.726;23.268;2022-12-18T05:50:16;96338.81;;;4.16;100.00
22647;BME280;11490;42.726;23.268;2022-12-18T05:52:41;96338.78;;;4.24;100.00
22647;BME280;11490;42.726;23.268;2022-12-18T05:55:07;96347.41;;;4.10;100.00
22647;BME280;11490;42.726;23.268;2022-12-18T05:57:32;96360.78;;;4.08;100.00
22647;BME280;11490;42.726;23.268;2022-12-18T05:59:58;96367.66;;;4.25;100.00
22647;BME280;11490;42.726;23.268;2022-12-18T06:02:23;96375.44;;;4.11;100.00
22647;BME280;11490;42.726;23.268;2022-12-18T06:04:48;96356.81;;;4.04;100.00
22647;BME280;11490;42.726;23.268;2022-12-18T06:07:14;96380.25;;;4.07;100.00
22647;BME280;11490;42.726;23.268;2022-12-18T06:09:39;96381.91;;;4.08;100.00
22647;BME280;11490;42.726;23.268;2022-12-18T06:12:05;96378.56;;;4.22;100.00
22647;BME280;11490;42.726;23.268;2022-12-18T06:14:30;96379.72;;;4.12;100.00
22647;BME280;11490;42.726;23.268;2022-12-18T06:16:56;96371.66;;;4.05;100.00
22647;BME280;11490;42.726;23.268;2022-12-18T06:19:21;96384.16;;;4.19;100.00
22647;BME280;11490;42.726;23.268;2022-12-18T06:21:46;96376.28;;;4.03;100.00
22647;BME280;11490;42.726;23.268;2022-12-18T06:24:12;96382.00;;;4.31;100.00
22647;BME280;11490;42.726;23.268;2022-12-18T06:26:40;96393.25;;;4.25;100.00
22647;BME280;11490;42.726;23.268;2022-12-18T06:29:06;96391.09;;;4.20;100.00
22647;BME280;11490;42.726;23.268;2022-12-18T06:31:31;96383.19;;;4.12;100.00
22647;BME280;11490;42.726;23.268;2022-12-18T06:33:57;96384.53;;;4.16;100.00
22647;BME280;11490;42.726;23.268;2022-12-18T06:36:22;96391.59;;;4.24;100.00
22647;BME280;11490;42.726;23.268;2022-12-18T06:38:48;96380.91;;;4.17;100.00
22647;BME280;11490;42.726;23.268;2022-12-18T06:41:16;96396.22;;;4.22;100.00
22647;BME280;11490;42.726;23.268;2022-12-18T06:43:43;96404.69;;;4.09;100.00
22647;BME280;11490;42.726;23.268;2022-12-18T06:46:09;96409.72;;;4.35;100.00
22647;BME280;11490;42.726;23.268;2022-12-18T06:48:35;96416.53;;;4.13;100.00
22647;BME280;11490;42.726;23.268;2022-12-18T06:51:00;96420.00;;;4.14;100.00
22647;BME280;11490;42.726;23.268;2022-12-18T06:53:26;96408.88;;;4.35;100.00
22647;BME280;11490;42.726;23.268;2022-12-18T06:55:51;96410.25;;;4.22;100.00
22647;BME280;11490;42.726;23.268;2022-12-18T06:58:17;96421.13;;;4.19;100.00
22647;BME280;11490;42.726;23.268;2022-12-18T07:00:43;96427.78;;;4.07;100.00
22647;BME280;11490;42.726;23.268;2022-12-18T07:03:09;96419.47;;;4.18;100.00
22647;BME280;11490;42.726;23.268;2022-12-18T07:05:34;96426.41;;;4.19;100.00
22647;BME280;11490;42.726;23.268;2022-12-18T07:08:04;96427.47;;;3.94;100.00
22647;BME280;11490;42.726;23.268;2022-12-18T07:10:29;96434.69;;;4.24;100.00
22647;BME280;11490;42.726;23.268;2022-12-18T07:12:54;96431.69;;;4.19;100.00
22647;BME280;11490;42.726;23.268;2022-12-18T07:15:20;96422.19;;;4.02;100.00
22647;BME280;11490;42.726;23.268;2022-12-18T07:17:45;96436.69;;;4.06;100.00
22647;BME280;11490;42.726;23.268;2022-12-18T07:20:11;96439.47;;;4.05;100.00
22647;BME280;11490;42.726;23.268;2022-12-18T07:22:36;96434.03;;;3.98;100.00
22647;BME280;11490;42.726;23.268;2022-12-18T07:25:01;96427.63;;;3.84;100.00
22647;BME280;11490;42.726;23.268;2022-12-18T07:27:27;96450.19;;;3.95;100.00
22647;BME280;11490;42.726;23.268;2022-12-18T07:29:52;96445.94;;;4.10;100.00
22647;BME280;11490;42.726;23.268;2022-12-18T07:32:17;96449.19;;;4.12;100.00
22647;BME280;11490;42.726;23.268;2022-12-18T07:34:43;96440.28;;;4.21;100.00
22647;BME280;11490;42.726;23.268;2022-12-18T07:37:08;96455.16;;;4.14;100.00
22647;BME280;11490;42.726;23.268;2022-12-18T07:39:34;96448.50;;;4.26;100.00
22647;BME280;11490;42.726;23.268;2022-12-18T07:41:59;96459.75;;;4.12;100.00
22647;BME280;11490;42.726;23.268;2022-12-18T07:44:43;96460.41;;;4.22;100.00
22647;BME280;11490;42.726;23.268;2022-12-18T07:47:08;96465.41;;;4.09;100.00
22647;BME280;11490;42.726;23.268;2022-12-18T07:49:33;96459.78;;;4.04;100.00
22647;BME280;11490;42.726;23.268;2022-12-18T07:51:59;96457.47;;;4.17;100.00
22647;BME280;11490;42.726;23.268;2022-12-18T07:54:24;96466.69;;;4.30;100.00
22647;BME280;11490;42.726;23.268;2022-12-18T07:56:51;96465.84;;;4.21;100.00
22647;BME280;11490;42.726;23.268;2022-12-18T07:59:17;96463.72;;;4.24;100.00
22647;BME280;11490;42.726;23.268;2022-12-18T08:01:43;96479.88;;;4.38;100.00
22647;BME280;11490;42.726;23.268;2022-12-18T08:04:08;96481.22;;;4.17;100.00
22647;BME280;11490;42.726;23.268;2022-12-18T08:06:34;96478.59;;;4.25;100.00
22647;BME280;11490;42.726;23.268;2022-12-18T08:08:59;96479.06;;;4.21;100.00
22647;BME280;11490;42.726;23.268;2022-12-18T08:11:26;96489.91;;;4.42;100.00
22647;BME280;11490;42.726;23.268;2022-12-18T08:13:52;96491.06;;;4.56;100.00
22647;BME280;11490;42.726;23.268;2022-12-18T08:16:17;96481.16;;;4.50;100.00
22647;BME280;11490;42.726;23.268;2022-12-18T08:18:43;96497.03;;;4.34;100.00
22647;BME280;11490;42.726;23.268;2022-12-18T08:21:16;96499.19;;;4.38;100.00
22647;BME280;11490;42.726;23.268;2022-12-18T08:23:43;96507.28;;;4.37;100.00
22647;BME280;11490;42.726;23.268;2022-12-18T08:26:13;96506.94;;;4.40;100.00
22647;BME280;11490;42.726;23.268;2022-12-18T08:28:39;96493.06;;;4.38;100.00
22647;BME280;11490;42.726;23.268;2022-12-18T08:31:06;96515.50;;;4.34;100.00
22647;BME280;11490;42.726;23.268;2022-12-18T08:33:32;96508.91;;;4.38;100.00
22647;BME280;11490;42.726;23.268;2022-12-18T08:35:58;96513.53;;;4.36;100.00
22647;BME280;11490;42.726;23.268;2022-12-18T08:38:24;96503.31;;;4.49;100.00
22647;BME280;11490;42.726;23.268;2022-12-18T08:40:49;96515.88;;;4.31;100.00
22647;BME280;11490;42.726;23.268;2022-12-18T08:43:14;96515.03;;;4.38;100.00
22647;BME280;11490;42.726;23.268;2022-12-18T08:45:58;96524.78;;;4.38;100.00
22647;BME280;11490;42.726;23.268;2022-12-18T08:48:23;96513.22;;;4.47;100.00
22647;BME280;11490;42.726;23.268;2022-12-18T08:50:56;96522.78;;;4.40;100.00
22647;BME280;11490;42.726;23.268;2022-12-18T08:53:22;96531.53;;;4.48;99.77
22647;BME280;11490;42.726;23.268;2022-12-18T08:55:47;96519.50;;;4.38;99.63
22647;BME280;11490;42.726;23.268;2022-12-18T08:58:12;96523.09;;;4.53;100.00
22647;BME280;11490;42.726;23.268;2022-12-18T09:00:38;96520.63;;;4.51;99.77
22647;BME280;11490;42.726;23.268;2022-12-18T09:03:03;96516.16;;;4.52;100.00
22647;BME280;11490;42.726;23.268;2022-12-18T09:05:30;96520.63;;;4.51;98.57
22647;BME280;11490;42.726;23.268;2022-12-18T09:07:55;96520.44;;;4.61;99.61
22647;BME280;11490;42.726;23.268;2022-12-18T09:10:21;96520.78;;;4.42;98.73
22647;BME280;11490;42.726;23.268;2022-12-18T09:12:46;96521.09;;;4.71;100.00
22647;BME280;11490;42.726;23.268;2022-12-18T09:15:12;96523.34;;;4.82;99.68
22647;BME280;11490;42.726;23.268;2022-12-18T09:17:37;96525.00;;;4.83;96.98
22647;BME280;11490;42.726;23.268;2022-12-18T09:20:03;96514.63;;;4.74;96.31
22647;BME280;11490;42.726;23.268;2022-12-18T09:22:28;96509.38;;;4.57;95.14
22647;BME280;11490;42.726;23.268;2022-12-18T09:24:54;96514.03;;;4.55;96.03
22647;BME280;11490;42.726;23.268;2022-12-18T09:27:19;96524.31;;;4.89;96.82
22647;BME280;11490;42.726;23.268;2022-12-18T09:29:44;96527.63;;;4.91;96.35
22647;BME280;11490;42.726;23.268;2022-12-18T09:32:10;96513.75;;;4.89;96.27
22647;BME280;11490;42.726;23.268;2022-12-18T09:34:35;96514.75;;;4.80;96.80
22647;BME280;11490;42.726;23.268;2022-12-18T09:37:00;96528.97;;;4.95;97.11
22647;BME280;11490;42.726;23.268;2022-12-18T09:39:26;96525.41;;;4.64;95.91
22647;BME280;11490;42.726;23.268;2022-12-18T09:41:53;96523.34;;;4.82;97.09
22647;BME280;11490;42.726;23.268;2022-12-18T09:44:23;96525.03;;;4.67;96.73
22647;BME280;11490;42.726;23.268;2022-12-18T09:47:13;96530.00;;;4.70;96.64
22647;BME280;11490;42.726;23.268;2022-12-18T09:49:44;96527.63;;;4.91;95.09
22647;BME280;11490;42.726;23.268;2022-12-18T09:52:15;96522.34;;;4.91;95.04
22647;BME280;11490;42.726;23.268;2022-12-18T09:54:46;96527.97;;;4.88;93.31
22647;BME280;11490;42.726;23.268;2022-12-18T09:57:20;96526.94;;;4.97;93.40
22647;BME280;11490;42.726;23.268;2022-12-18T09:59:51;96526.63;;;5.00;93.60
22647;BME280;11490;42.726;23.268;2022-12-18T10:02:25;96532.97;;;5.22;94.50
22647;BME280;11490;42.726;23.268;2022-12-18T10:05:07;96508.97;;;5.32;95.62
22647;BME280;11490;42.726;23.268;2022-12-18T10:13:08;96529.09;;;5.41;93.85
22647;BME280;11490;42.726;23.268;2022-12-18T10:16:15;96515.41;;;5.29;94.09
22647;BME280;11490;42.726;23.268;2022-12-18T10:21:17;96511.66;;;5.24;94.42
22647;BME280;11490;42.726;23.268;2022-12-18T10:24:01;96529.09;;;5.41;94.44
22647;BME280;11490;42.726;23.268;2022-12-18T10:26:31;96533.22;;;5.66;93.68
22647;BME280;11490;42.726;23.268;2022-12-18T10:28:57;96521.31;;;5.39;91.89
22647;BME280;11490;42.726;23.268;2022-12-18T10:31:24;96532.94;;;5.61;93.21
22647;BME280;11490;42.726;23.268;2022-12-18T10:33:50;96521.69;;;5.59;92.61
22647;BME280;11490;42.726;23.268;2022-12-18T10:36:15;96512.94;;;5.59;92.87
22647;BME280;11490;42.726;23.268;2022-12-18T10:38:41;96518.06;;;5.60;93.78
22647;BME280;11490;42.726;23.268;2022-12-18T10:43:46;96514.19;;;5.48;92.85
22647;BME280;11490;42.726;23.268;2022-12-18T10:46:14;96510.88;;;5.46;92.22
22647;BME280;11490;42.726;23.268;2022-12-18T10:51:21;96486.09;;;5.39;91.97
22647;BME280;11490;42.726;23.268;2022-12-18T10:53:55;96520.66;;;5.68;91.15
22647;BME280;11490;42.726;23.268;2022-12-18T10:56:22;96503.53;;;5.56;92.05
22647;BME280;11490;42.726;23.268;2022-12-18T10:58:57;96529.88;;;5.80;90.31
22647;BME280;11490;42.726;23.268;2022-12-18T11:01:23;96505.19;;;5.88;90.34
22647;BME280;11490;42.726;23.268;2022-12-18T11:06:22;96513.69;;;6.21;90.90
22647;BME280;11490;42.726;23.268;2022-12-18T11:09:04;96521.31;;;6.01;90.64
22647;BME280;11490;42.726;23.268;2022-12-18T11:11:31;96525.19;;;5.82;90.56
22647;BME280;11490;42.726;23.268;2022-12-18T11:14:06;96525.84;;;5.85;91.19
22647;BME280;11490;42.726;23.268;2022-12-18T11:16:44;96519.13;;;5.74;90.29
22647;BME280;11490;42.726;23.268;2022-12-18T11:19:33;96531.38;;;5.75;90.35
22647;BME280;11490;42.726;23.268;2022-12-18T11:21:59;96525.44;;;6.04;91.69
22647;BME280;11490;42.726;23.268;2022-12-18T11:24:34;96533.78;;;5.93;90.44
22647;BME280;11490;42.726;23.268;2022-12-18T11:27:02;96536.97;;;6.11;91.78
22647;BME280;11490;42.726;23.268;2022-12-18T11:34:44;96523.91;;;5.78;91.47
22647;BME280;11490;42.726;23.268;2022-12-18T11:37:12;96526.91;;;5.75;90.28
22647;BME280;11490;42.726;23.268;2022-12-18T11:39:49;96528.44;;;5.70;88.98
22647;BME280;11490;42.726;23.268;2022-12-18T11:45:27;96538.28;;;5.53;88.91
22647;BME280;11490;42.726;23.268;2022-12-18T11:53:01;96526.03;;;5.52;89.91
22647;BME280;11490;42.726;23.268;2022-12-18T11:55:47;96532.31;;;5.51;89.94
22647;BME280;11490;42.726;23.268;2022-12-18T12:01:24;96523.00;;;5.63;92.05
22647;BME280;11490;42.726;23.268;2022-12-18T12:13:01;96526.28;;;5.65;91.76
22647;BME280;11490;42.726;23.268;2022-12-18T12:18:19;96519.28;;;5.80;91.23
22647;BME280;11490;42.726;23.268;2022-12-18T12:21:14;96525.09;;;5.45;90.51
22647;BME280;11490;42.726;23.268;2022-12-18T12:23:56;96530.06;;;5.48;92.18
22647;BME280;11490;42.726;23.268;2022-12-18T12:39:20;96542.06;;;5.81;91.35
22647;BME280;11490;42.726;23.268;2022-12-18T12:41:47;96534.38;;;5.72;90.35
22647;BME280;11490;42.726;23.268;2022-12-18T12:44:39;96526.28;;;5.96;92.55
22647;BME280;11490;42.726;23.268;2022-12-18T12:47:24;96530.84;;;5.88;89.95
22647;BME280;11490;42.726;23.268;2022-12-18T12:49:52;96534.72;;;6.00;90.67
22647;BME280;11490;42.726;23.268;2022-12-18T12:52:35;96534.78;;;5.84;89.66
22647;BME280;11490;42.726;23.268;2022-12-18T12:55:05;96548.91;;;5.76;89.05
22647;BME280;11490;42.726;23.268;2022-12-18T12:57:40;96532.56;;;5.72;89.14
22647;BME280;11490;42.726;23.268;2022-12-18T13:00:09;96537.16;;;5.48;90.22
22647;BME280;11490;42.726;23.268;2022-12-18T13:02:42;96550.03;;;5.51;89.95
22647;BME280;11490;42.726;23.268;2022-12-18T13:08:11;96554.84;;;5.47;89.89
22647;BME280;11490;42.726;23.268;2022-12-18T13:10:43;96561.28;;;5.53;90.39
22647;BME280;11490;42.726;23.268;2022-12-18T13:20:43;96558.13;;;5.18;91.46
22647;BME280;11490;42.726;23.268;2022-12-18T13:23:39;96572.19;;;5.19;91.90
22647;BME280;11490;42.726;23.268;2022-12-18T13:31:00;96539.47;;;5.03;90.99
22647;BME280;11490;42.726;23.268;2022-12-18T13:36:00;96567.84;;;5.26;91.12
22647;BME280;11490;42.726;23.268;2022-12-18T13:40:59;96578.56;;;5.32;90.97
22647;BME280;11490;42.726;23.268;2022-12-18T13:43:35;96571.75;;;5.38;90.31
22647;BME280;11490;42.726;23.268;2022-12-18T13:46:17;96584.88;;;5.23;89.48
22647;BME280;11490;42.726;23.268;2022-12-18T13:51:17;96591.72;;;5.01;89.57
22647;BME280;11490;42.726;23.268;2022-12-18T13:53:47;96586.09;;;5.04;89.77
22647;BME280;11490;42.726;23.268;2022-12-18T13:56:20;96604.19;;;5.32;89.31
22647;BME280;11490;42.726;23.268;2022-12-18T13:58:46;96584.38;;;5.20;90.56
22647;BME280;11490;42.726;23.268;2022-12-18T14:01:24;96595.72;;;5.36;89.69
22647;BME280;11490;42.726;23.268;2022-12-18T14:03:49;96588.69;;;5.21;90.41
22647;BME280;11490;42.726;23.268;2022-12-18T14:06:16;96592.66;;;5.25;90.25
22647;BME280;11490;42.726;23.268;2022-12-18T14:08:42;96598.28;;;5.22;89.83
22647;BME280;11490;42.726;23.268;2022-12-18T14:11:19;96607.00;;;5.30;90.36
22647;BME280;11490;42.726;23.268;2022-12-18T14:13:47;96603.84;;;5.27;89.67
22647;BME280;11490;42.726;23.268;2022-12-18T14:16:14;96613.06;;;5.47;89.11
22647;BME280;11490;42.726;23.268;2022-12-18T14:18:44;96608.50;;;5.33;89.01
22647;BME280;11490;42.726;23.268;2022-12-18T14:21:25;96615.75;;;5.39;89.75
22647;BME280;11490;42.726;23.268;2022-12-18T14:24:12;96613.25;;;5.37;87.74
22647;BME280;11490;42.726;23.268;2022-12-18T14:26:38;96619.78;;;5.19;87.40
22647;BME280;11490;42.726;23.268;2022-12-18T14:29:26;96620.25;;;5.22;87.94
22647;BME280;11490;42.726;23.268;2022-12-18T14:32:11;96618.13;;;5.18;88.27
22647;BME280;11490;42.726;23.268;2022-12-18T14:34:39;96598.66;;;5.02;87.87
22647;BME280;11490;42.726;23.268;2022-12-18T14:37:04;96623.75;;;5.15;87.05
22647;BME280;11490;42.726;23.268;2022-12-18T14:39:30;96617.09;;;5.27;88.40